EHSA

Euro Platform

Euro Platform, The Netherlands
METAR EHSA 190255Z AUTO 28026KT 9999 ///////// 05/02 Q1004 W07/H22
Observed Flight Rules
Jan-19 @ 02:55 UTC (41 minutes ago)
Wind Visibility
280° at 26 knots 10,000+ meters
Temperatures Readings
Current 5°C / 41°F
Dewpoint 2°C / 36°F
Humidity 81%
Altimeter 29.65" Hg
Pressure 1004 hPa
Elevation 50
METAR EHSA 190255Z AUTO 28026KT 9999 ///////// 05/02 Q1004 W07/H22
Observed Flight Rules
Jan-19 @ 02:55 UTC
(41 minutes ago)
Wind Visibility
280° at 26 knots 10,000+ meters
Temperature Dewpoint
5°C / 41°F 2°C / 36°F
Humidity Altimeter Pressure
81% 29.65" Hg 1004 hPa